Arlington, CO

10:45 AM MDT on September 21, 2014 (GMT -0600)
NE Crowley County | Change Station
CLOSE
Current Station
Personal Weather Station
Location: Sugar City, CO
Elevation: 4590 ft
Nearby Weather Stations

Elev 4590 ft 38.45 °N, 103.52 °W | Updated 10 seconds ago

Mostly Cloudy
Mostly Cloudy
62.7 °F
Feels Like 62.7 °F
N
2.0
Wind Variable Wind from ESE
Gusts 7.0 mph

Today
High -- | Low -- °F
--% Chance of Precip.
Yesterday
High -- | Low -- °F
Precip. -- in
6:40 AM 6:51 PM
Waning Crescent, 6% visible
Pressure 30.24 in
Visibility 10.0 miles
Clouds Clear
Dew Point 42 °F
Humidity 47%
Rainfall 0.20 in
Snow Depth 0 in , 0 in , 0 in
UV 4 out of 12
Pollen 4.50 out of 12
Air Quality Not available.
Flu Activity Not available.
METAR KLHX 211553Z AUTO 11009KT 10SM CLR 19/06 A3038 RMK AO2 SLP239 T01940061

More Conditions Fewer Conditions

Pressure 30.24 in
Visibility 10.0 miles
Clouds Clear
Dew Point 42 °F
Humidity 47%
Rainfall 0.20 in
Snow Depth 0 in , 0 in , 0 in
UV 4 out of 12
Pollen 4.50 out of 12
Air Quality Not available.
Flu Activity Not available.
METAR KLHX 211553Z AUTO 11009KT 10SM CLR 19/06 A3038 RMK AO2 SLP239 T01940061

More Conditions Fewer Conditions

10-Day Weather Forecast

Almanac

Astronomy

Sep. 21, 2014 Rise Set
Actual Time 6:40 AM MDT 6:51 PM MDT
Civil Twilight 6:13 AM MDT 7:18 PM MDT
Nautical Twilight 5:42 AM MDT 7:49 PM MDT
Astronomical Twilight 5:11 AM MDT 8:20 PM MDT
Moon 4:17 AM MDT 5:28 PM MDT
Length of Visible Light 13h 04m
Length of Day
12h 11m
Tomorrow will be 2m 27s shorter.
Waning Crescent, 6% of the Moon is Illuminated
Today
Waning Crescent
Sep 24
New
Oct 1
First Quarter
Oct 8
Full
Oct 15
Last Quarter

Today's Extremes

State Highs State Lows

Community

WunderPhotos

Upload Photos

1,755,186 photos uploaded!

Nearby

Snow Depth

Station Depth Elevation
Lake Irene 0 in 10700 ft
Willow Creek Pass 0 in 9540 ft
Slumgullion 0 in 11440 ft
Cascade 0 in 8880 ft
Porphyry Creek 0 in 10760 ft

Earthquake Activity

City Distance Mag. Time & Date
No recent earthquake activity has been reported nearby.
Minimum magnitude displayed is 2.5.

Coastal Water Temperatures

Place Temperature
No Stations Reporting

Nearby Weather Stations